createdAt,value
2023-03-19T00:03:39.897Z,60.20
2023-03-19T00:20:18.393Z,61.40
2023-03-19T00:42:25.430Z,62.50
2023-03-19T00:53:44.150Z,64.20
2023-03-19T01:10:36.947Z,78.50
2023-03-19T01:16:08.119Z,62.90
2023-03-19T01:21:43.181Z,64.20
2023-03-19T01:27:19.252Z,63.10
2023-03-19T01:38:36.547Z,65.30
2023-03-19T01:44:29.049Z,63.70
2023-03-19T01:50:36.396Z,64.60
2023-03-19T01:56:32.876Z,66.80
2023-03-19T02:02:35.398Z,72.60
2023-03-19T02:08:36.947Z,64.70
2023-03-19T02:14:07.419Z,66.60
2023-03-19T02:19:51.951Z,69.00
2023-03-19T02:25:34.802Z,67.10
2023-03-19T02:31:07.083Z,68.30
2023-03-19T02:36:49.506Z,65.00
2023-03-19T02:42:23.267Z,65.10
2023-03-19T02:48:02.498Z,65.30
2023-03-19T02:53:35.171Z,63.60
2023-03-19T02:59:14.392Z,65.50
2023-03-19T03:10:18.291Z,67.20
2023-03-19T08:06:45.454Z,71.10
2023-03-19T08:12:20.236Z,71.90
2023-03-19T08:17:59.766Z,72.70
2023-03-19T08:23:35.769Z,72.60
2023-03-19T08:29:04.680Z,73.40
2023-03-19T08:34:33.928Z,73.90
2023-03-19T08:40:04.862Z,73.60
2023-03-19T08:45:32.930Z,73.70
2023-03-19T08:51:04.009Z,74.00
2023-03-19T08:56:32.357Z,74.10
2023-03-19T09:02:00.624Z,73.40
2023-03-19T09:13:01.870Z,72.40
2023-03-19T09:18:32.801Z,73.10
2023-03-19T09:24:00.784Z,72.90
2023-03-19T09:29:28.837Z,73.40
2023-03-19T09:34:57.846Z,71.80
2023-03-19T09:40:42.362Z,72.40
2023-03-19T09:46:47.868Z,72.30
2023-03-19T09:52:36.576Z,72.40
2023-03-19T09:58:14.723Z,71.60
2023-03-19T10:04:15.784Z,72.30
2023-03-19T10:09:50.151Z,71.30
2023-03-19T10:15:29.472Z,71.90
2023-03-19T10:21:19.060Z,71.90
2023-03-19T10:32:28.082Z,70.90
2023-03-19T10:37:55.921Z,71.10
2023-03-19T10:43:26.292Z,70.80
2023-03-19T10:54:29.069Z,69.70
2023-03-19T11:05:34.055Z,69.30
2023-03-19T11:22:15.904Z,68.20
2023-03-19T11:56:06.453Z,67.20
2023-03-19T12:02:00.771Z,79.90
2023-03-19T12:07:50.779Z,67.10
2023-03-19T12:14:00.665Z,67.10
2023-03-19T12:20:15.640Z,66.60
2023-03-19T12:26:23.656Z,67.40
2023-03-19T12:38:10.982Z,65.70
2023-03-19T12:43:49.365Z,65.60
2023-03-19T13:00:56.751Z,64.60
2023-03-19T13:06:30.525Z,62.50
2023-03-19T13:12:21.045Z,77.20
2023-03-19T13:23:35.274Z,63.30
2023-03-19T13:29:24.586Z,63.00
2023-03-19T13:35:43.252Z,62.80
2023-03-19T13:41:32.977Z,62.70
2023-03-19T13:47:26.782Z,78.80
2023-03-19T13:53:29.265Z,62.60
2023-03-19T13:59:15.901Z,63.10
2023-03-19T14:05:00.399Z,62.50
2023-03-19T14:10:32.249Z,62.30
2023-03-19T14:16:48.980Z,62.20
2023-03-19T14:27:56.438Z,61.70
2023-03-19T14:33:44.774Z,61.50
2023-03-19T14:39:24.463Z,58.00
2023-03-19T14:45:48.326Z,54.20
2023-03-19T14:51:33.967Z,57.50
2023-03-19T14:57:20.445Z,55.50
2023-03-19T15:08:24.075Z,52.20
2023-03-19T15:14:28.564Z,51.80
2023-03-19T15:20:17.214Z,50.60
2023-03-19T15:26:05.038Z,53.90
2023-03-19T15:32:04.896Z,56.60
2023-03-19T15:37:51.339Z,55.30
2023-03-19T15:43:23.717Z,53.90
2023-03-19T15:49:05.471Z,53.70
2023-03-19T15:54:37.845Z,53.50
2023-03-19T16:00:18.981Z,53.60
2023-03-19T16:06:17.288Z,54.10
2023-03-19T16:11:48.100Z,54.30
2023-03-19T16:17:23.417Z,54.40
2023-03-19T16:22:58.952Z,54.20
2023-03-19T16:34:02.375Z,72.40
2023-03-19T16:39:37.772Z,54.60
2023-03-19T16:45:27.622Z,54.80
2023-03-19T16:51:02.689Z,55.10
2023-03-19T17:02:16.211Z,55.70
2023-03-19T17:07:51.072Z,56.10
2023-03-19T17:13:25.786Z,56.30
2023-03-19T17:18:56.584Z,63.30
2023-03-19T17:24:31.567Z,56.80
2023-03-19T17:46:27.589Z,57.50
2023-03-19T17:51:56.410Z,79.10
2023-03-19T18:02:56.940Z,58.10
2023-03-19T18:30:34.565Z,58.90
2023-03-19T18:58:03.161Z,59.70
2023-03-19T19:31:00.939Z,60.80
2023-03-19T19:36:30.142Z,61.00
2023-03-19T19:41:58.123Z,62.60
2023-03-19T19:47:26.979Z,61.40
2023-03-19T19:52:56.393Z,61.70
2023-03-19T19:58:33.023Z,61.60
2023-03-19T20:09:29.083Z,62.00
2023-03-19T20:14:57.901Z,62.90
2023-03-19T20:20:32.584Z,62.70
2023-03-19T20:26:02.036Z,62.80
2023-03-19T20:31:32.275Z,62.90
2023-03-19T20:42:32.387Z,63.00
2023-03-19T20:48:00.640Z,63.10
2023-03-19T20:53:29.501Z,63.30
2023-03-19T20:58:58.502Z,64.10
2023-03-19T21:04:27.436Z,65.10
2023-03-19T21:20:58.758Z,65.60
2023-03-19T21:42:59.535Z,66.60
2023-03-19T21:48:33.245Z,67.30
2023-03-19T21:59:32.430Z,67.80
2023-03-19T22:43:46.792Z,72.50
2023-03-19T22:49:17.551Z,72.80
2023-03-19T23:00:21.311Z,73.90
2023-03-19T23:06:01.318Z,73.90
2023-03-19T23:11:29.308Z,76.70
2023-03-19T23:17:00.887Z,74.40
2023-03-19T23:28:01.908Z,75.00
2023-03-19T23:33:30.152Z,82.40
2023-03-19T23:44:29.274Z,84.90
